createdAt,value
2022-11-24T00:00:11.547Z,988.47
2022-11-24T00:05:11.452Z,988.46
2022-11-24T00:10:11.446Z,988.50
2022-11-24T00:15:11.314Z,988.54
2022-11-24T00:20:11.209Z,988.48
2022-11-24T00:25:11.163Z,988.56
2022-11-24T00:30:11.996Z,988.58
2022-11-24T00:35:10.962Z,988.57
2022-11-24T00:43:33.535Z,988.60
2022-11-24T00:48:32.989Z,988.65
2022-11-24T00:53:33.029Z,988.78
2022-11-24T00:58:32.849Z,988.77
2022-11-24T01:03:32.915Z,988.83
2022-11-24T01:08:32.745Z,988.87
2022-11-24T01:13:32.914Z,988.91
2022-11-24T01:18:32.600Z,988.92
2022-11-24T01:23:32.673Z,989.04
2022-11-24T01:28:32.540Z,989.05
2022-11-24T01:33:35.461Z,989.11
2022-11-24T01:38:32.511Z,989.12
2022-11-24T01:43:32.559Z,989.16
2022-11-24T01:48:32.306Z,989.19
2022-11-24T01:53:32.280Z,989.28
2022-11-24T01:58:32.249Z,989.30
2022-11-24T02:03:32.190Z,989.42
2022-11-24T02:08:31.983Z,989.42
2022-11-24T02:13:32.024Z,989.48
2022-11-24T02:18:32.213Z,989.47
2022-11-24T03:21:40.928Z,989.80
2022-11-24T03:26:39.999Z,989.81
2022-11-24T03:31:40.112Z,989.80
2022-11-24T03:36:39.927Z,989.77
2022-11-24T03:41:39.839Z,989.86
2022-11-24T03:46:39.744Z,989.91
2022-11-24T03:51:39.668Z,989.96
2022-11-24T03:56:39.590Z,990.11
2022-11-24T04:01:39.654Z,990.24
2022-11-24T04:06:39.651Z,990.16
2022-11-24T04:11:42.365Z,990.30
2022-11-24T04:16:39.435Z,990.38
2022-11-24T04:21:39.330Z,990.44
2022-11-24T04:26:39.090Z,990.50
2022-11-24T04:31:39.876Z,990.52
2022-11-24T04:36:39.050Z,990.53
2022-11-24T04:48:31.871Z,990.76
2022-11-24T04:53:31.713Z,990.82
2022-11-24T04:58:31.685Z,990.87
2022-11-24T05:03:31.504Z,990.91
2022-11-24T05:08:31.464Z,990.93
2022-11-24T05:13:31.395Z,990.90
2022-11-24T05:18:31.281Z,990.97
2022-11-24T05:57:58.072Z,991.39
2022-11-24T06:02:57.031Z,991.30
2022-11-24T06:07:56.713Z,991.38
2022-11-24T06:12:56.767Z,991.42
2022-11-24T06:17:56.508Z,991.53
2022-11-24T06:22:56.376Z,991.60
2022-11-24T06:27:56.531Z,991.59
2022-11-24T06:32:56.349Z,991.67
2022-11-24T06:37:56.259Z,991.71
2022-11-24T06:42:56.145Z,991.78
2022-11-24T06:47:59.212Z,991.79
2022-11-24T06:52:56.164Z,991.80
2022-11-24T06:57:56.009Z,991.79
2022-11-24T07:02:56.084Z,991.80
2022-11-24T07:07:56.749Z,991.84
2022-11-24T07:12:55.908Z,991.83
2022-11-24T07:17:56.008Z,991.95
2022-11-24T07:25:15.122Z,992.07
2022-11-24T07:33:33.897Z,992.14
2022-11-24T07:38:33.846Z,992.18
2022-11-24T07:43:33.712Z,992.29
2022-11-24T07:48:33.517Z,992.29
2022-11-24T07:53:33.619Z,992.28
2022-11-24T07:58:33.541Z,992.29
2022-11-24T08:03:33.423Z,992.19
2022-11-24T08:08:33.470Z,992.26
2022-11-24T08:13:33.555Z,992.33
2022-11-24T08:18:33.090Z,992.33
2022-11-24T08:23:36.459Z,992.38
2022-11-24T08:28:33.157Z,992.32
2022-11-24T08:33:33.174Z,992.33
2022-11-24T08:38:32.820Z,992.36
2022-11-24T08:43:32.840Z,992.35
2022-11-24T08:48:33.012Z,992.31
2022-11-24T08:53:32.795Z,992.26
2022-11-24T08:58:32.729Z,992.33
2022-11-24T09:03:44.781Z,992.37
2022-11-24T09:09:47.403Z,992.50
2022-11-24T09:14:47.041Z,992.52
2022-11-24T09:19:47.113Z,992.58
2022-11-24T09:24:46.915Z,992.51
2022-11-24T09:29:47.015Z,992.57
2022-11-24T09:34:46.785Z,992.56
2022-11-24T09:39:46.779Z,992.54
2022-11-24T09:44:46.656Z,992.53
2022-11-24T09:49:51.075Z,992.61
2022-11-24T09:54:47.834Z,992.61
2022-11-24T09:59:49.581Z,992.65
2022-11-24T10:04:46.522Z,992.62
2022-11-24T10:09:46.469Z,992.63
2022-11-24T10:14:46.295Z,992.70
2022-11-24T10:19:46.340Z,992.71
2022-11-24T10:24:46.152Z,992.73
2022-11-24T10:29:46.188Z,992.76
2022-11-24T10:34:46.082Z,992.80
2022-11-24T10:39:46.023Z,992.83
2022-11-24T10:44:45.879Z,992.83
2022-11-24T10:49:45.911Z,992.76
2022-11-24T10:54:45.771Z,992.74
2022-11-24T10:59:48.972Z,992.74
2022-11-24T11:04:45.600Z,992.71
2022-11-24T11:09:45.663Z,992.80
2022-11-24T11:14:45.473Z,992.73
2022-11-24T11:19:50.003Z,992.75
2022-11-24T11:24:45.399Z,992.80
2022-11-24T11:34:46.460Z,992.80
2022-11-24T11:39:48.658Z,992.77
2022-11-24T11:44:45.247Z,992.78
2022-11-24T11:49:45.080Z,992.75
2022-11-24T11:54:45.084Z,992.84
2022-11-24T11:59:48.164Z,992.84
2022-11-24T12:04:44.856Z,992.87
2022-11-24T12:09:44.874Z,992.88
2022-11-24T12:14:44.771Z,992.89
2022-11-24T12:19:44.940Z,992.94
2022-11-24T12:24:44.734Z,993.02
2022-11-24T12:29:44.581Z,993.06
2022-11-24T12:34:44.490Z,993.08
2022-11-24T12:39:44.627Z,993.12
2022-11-24T12:44:44.427Z,993.07
2022-11-24T12:49:44.429Z,993.13
2022-11-24T12:54:44.254Z,993.18
2022-11-24T12:59:47.175Z,993.11
2022-11-24T13:04:44.040Z,993.17
2022-11-24T13:09:44.147Z,993.21
2022-11-24T13:14:44.072Z,993.20
2022-11-24T13:19:43.927Z,993.21
2022-11-24T13:24:43.887Z,993.32
2022-11-24T13:29:43.919Z,993.35
2022-11-24T13:34:43.646Z,993.45
2022-11-24T13:39:47.469Z,993.53
2022-11-24T13:44:44.634Z,993.61
2022-11-24T13:49:43.511Z,993.66
2022-11-24T13:54:43.482Z,993.78
2022-11-24T13:59:47.279Z,993.76
2022-11-24T14:04:43.512Z,993.80
2022-11-24T14:09:44.293Z,993.82
2022-11-24T14:14:43.116Z,993.88
2022-11-24T14:19:43.375Z,993.87
2022-11-24T14:24:43.552Z,993.96
2022-11-24T14:29:42.972Z,993.98
2022-11-24T14:34:43.896Z,994.02
2022-11-24T14:39:42.919Z,994.07
2022-11-24T14:44:42.855Z,994.07
2022-11-24T14:49:43.136Z,994.13
2022-11-24T14:54:43.111Z,994.31
2022-11-24T14:59:45.642Z,994.35
2022-11-24T15:09:43.452Z,994.50
2022-11-24T15:14:42.500Z,994.56
2022-11-24T15:19:42.650Z,994.60
2022-11-24T15:24:42.211Z,994.63
2022-11-24T15:29:42.284Z,994.62
2022-11-24T15:34:42.172Z,994.68
2022-11-24T15:39:42.091Z,994.66
2022-11-24T15:44:41.997Z,994.71
2022-11-24T15:49:42.114Z,994.70
2022-11-24T15:54:41.864Z,994.80
2022-11-24T15:59:44.971Z,994.91
2022-11-24T16:04:41.844Z,994.93
2022-11-24T16:09:41.720Z,995.02
2022-11-24T16:14:41.639Z,995.05
2022-11-24T16:19:42.143Z,995.10
2022-11-24T16:24:41.567Z,995.28
2022-11-24T16:29:41.385Z,995.23
2022-11-24T16:34:41.288Z,995.28
2022-11-24T16:39:46.951Z,995.26
2022-11-24T16:44:42.270Z,995.31
2022-11-24T16:49:41.129Z,995.32
2022-11-24T16:54:41.162Z,995.29
2022-11-24T16:59:44.145Z,995.37
2022-11-24T17:04:40.947Z,995.37
2022-11-24T17:09:48.765Z,995.42
2022-11-24T17:15:09.504Z,995.45
2022-11-24T17:19:41.725Z,995.50
2022-11-24T17:24:40.732Z,995.56
2022-11-24T17:29:40.685Z,995.57
2022-11-24T17:34:40.546Z,995.53
2022-11-24T17:39:42.257Z,995.56
2022-11-24T17:44:40.464Z,995.58
2022-11-24T17:49:40.455Z,995.65
2022-11-24T17:54:46.466Z,995.65
2022-11-24T17:59:44.279Z,995.66
2022-11-24T18:04:40.135Z,995.77
2022-11-24T18:09:40.240Z,995.88
2022-11-24T18:14:40.134Z,995.94
2022-11-24T18:19:40.151Z,995.98
2022-11-24T18:24:40.260Z,996.03
2022-11-24T18:29:39.853Z,996.00
2022-11-24T18:34:39.794Z,996.02
2022-11-24T18:39:39.864Z,996.12
2022-11-24T18:44:39.609Z,996.03
2022-11-24T18:49:39.592Z,996.08
2022-11-24T18:54:39.462Z,996.07
2022-11-24T18:59:42.729Z,996.10
2022-11-24T19:04:39.417Z,996.19
2022-11-24T19:09:39.944Z,996.22
2022-11-24T19:14:39.310Z,996.23
2022-11-24T19:19:47.549Z,996.24
2022-11-24T19:24:46.789Z,996.20
2022-11-24T19:29:42.950Z,996.22
2022-11-24T19:34:38.995Z,996.30
2022-11-24T19:39:38.939Z,996.36
2022-11-24T19:44:38.980Z,996.49
2022-11-24T19:49:38.789Z,996.44
2022-11-24T19:54:38.827Z,996.52
2022-11-24T19:59:41.658Z,996.54
2022-11-24T20:04:38.740Z,996.59
2022-11-24T20:09:38.546Z,996.66
2022-11-24T20:14:38.512Z,996.77
2022-11-24T20:19:38.485Z,996.78
2022-11-24T20:24:38.330Z,996.80
2022-11-24T20:29:42.478Z,996.77
2022-11-24T20:34:39.416Z,996.81
2022-11-24T20:39:38.124Z,996.78
2022-11-24T20:44:38.125Z,996.75
2022-11-24T20:49:37.983Z,996.75
2022-11-24T20:54:38.140Z,996.81
2022-11-24T21:02:30.286Z,996.89
2022-11-24T21:07:30.220Z,996.94
2022-11-24T21:12:29.920Z,996.94
2022-11-24T21:17:29.869Z,996.90
2022-11-24T21:22:29.907Z,996.98
2022-11-24T21:27:29.655Z,996.90
2022-11-24T21:32:29.827Z,996.94
2022-11-24T21:37:29.599Z,996.95
2022-11-24T21:42:29.544Z,996.98
2022-11-24T21:47:29.437Z,996.92
2022-11-24T21:52:32.907Z,996.91
2022-11-24T21:57:29.320Z,996.98
2022-11-24T22:02:29.310Z,997.02
2022-11-24T22:07:29.318Z,997.02
2022-11-24T22:12:29.140Z,997.05
2022-11-24T22:17:29.043Z,997.06
2022-11-24T22:22:29.130Z,997.13
2022-11-24T22:27:28.949Z,997.13
2022-11-24T22:32:29.738Z,997.18
2022-11-24T22:37:29.001Z,997.29
2022-11-24T22:42:28.814Z,997.22
2022-11-24T22:47:28.865Z,997.20
2022-11-24T22:52:31.725Z,997.34
2022-11-24T22:57:28.622Z,997.42
2022-11-24T23:02:28.597Z,997.41
2022-11-24T23:07:28.407Z,997.43
2022-11-24T23:12:28.367Z,997.46
2022-11-24T23:17:28.261Z,997.49
2022-11-24T23:22:28.191Z,997.46
2022-11-24T23:27:28.140Z,997.45
2022-11-24T23:32:28.182Z,997.51
2022-11-24T23:37:52.107Z,997.51
2022-11-24T23:42:29.030Z,997.54
2022-11-24T23:47:28.145Z,997.57
2022-11-24T23:52:30.846Z,997.53
2022-11-24T23:57:27.875Z,997.57
